createdAt,value
2023-05-17T00:01:43.338Z,3.00
2023-05-17T00:04:10.531Z,3.10
2023-05-17T00:06:37.286Z,2.80
2023-05-17T00:09:04.162Z,2.90
2023-05-17T00:11:30.867Z,3.00
2023-05-17T00:13:57.579Z,3.40
2023-05-17T00:16:24.339Z,3.30
2023-05-17T00:18:51.471Z,3.00
2023-05-17T00:21:18.330Z,2.80
2023-05-17T00:23:45.597Z,2.90
2023-05-17T00:26:13.753Z,3.00
2023-05-17T00:28:40.569Z,2.90
2023-05-17T00:31:07.356Z,3.20
2023-05-17T00:33:34.077Z,2.80
2023-05-17T00:36:00.872Z,2.80
2023-05-17T00:38:27.643Z,3.80
2023-05-17T00:40:54.679Z,2.60
2023-05-17T00:43:21.502Z,3.10
2023-05-17T00:45:50.281Z,3.40
2023-05-17T00:48:17.194Z,3.10
2023-05-17T00:50:44.193Z,3.20
2023-05-17T00:53:11.357Z,2.80
2023-05-17T00:55:38.107Z,3.90
2023-05-17T00:58:04.818Z,3.20
2023-05-17T01:00:31.711Z,3.50
2023-05-17T01:02:58.493Z,3.30
2023-05-17T01:05:28.699Z,3.40
2023-05-17T01:07:55.908Z,3.40
2023-05-17T01:10:25.048Z,3.80
2023-05-17T01:13:05.139Z,3.80
2023-05-17T01:15:33.162Z,3.60
2023-05-17T01:18:15.398Z,3.50
2023-05-17T01:20:43.766Z,3.80
2023-05-17T01:23:26.975Z,3.40
2023-05-17T01:26:06.214Z,3.30
2023-05-17T01:28:33.120Z,3.20
2023-05-17T01:31:01.766Z,3.30
2023-05-17T01:33:29.984Z,3.20
2023-05-17T01:35:56.764Z,3.40
2023-05-17T01:38:23.541Z,3.60
2023-05-17T01:41:19.815Z,3.60
2023-05-17T01:44:01.883Z,3.20
2023-05-17T01:46:30.524Z,3.30
2023-05-17T01:49:15.260Z,3.00
2023-05-17T01:51:48.164Z,3.00
2023-05-17T01:54:15.378Z,3.00
2023-05-17T01:56:43.747Z,3.40
2023-05-17T01:59:11.440Z,3.30
2023-05-17T02:01:38.687Z,3.70
2023-05-17T02:04:06.000Z,3.00
2023-05-17T02:06:32.811Z,3.60
2023-05-17T02:09:02.609Z,2.90
2023-05-17T02:11:29.541Z,2.70
2023-05-17T02:13:56.406Z,2.60
2023-05-17T02:16:23.167Z,2.90
2023-05-17T02:18:50.139Z,3.00
2023-05-17T02:21:18.550Z,3.20
2023-05-17T02:23:46.085Z,3.20
2023-05-17T02:26:12.860Z,3.00
2023-05-17T02:28:39.613Z,3.10
2023-05-17T02:31:08.177Z,3.00
2023-05-17T02:33:35.444Z,2.90
2023-05-17T02:36:02.251Z,2.80
2023-05-17T02:38:29.143Z,3.30
2023-05-17T02:40:55.916Z,3.20
2023-05-17T02:43:24.335Z,3.40
2023-05-17T02:45:51.233Z,3.30
2023-05-17T02:48:18.003Z,3.30
2023-05-17T02:50:44.778Z,3.10
2023-05-17T02:53:11.548Z,3.20
2023-05-17T02:55:38.354Z,2.90
2023-05-17T02:58:05.194Z,3.00
2023-05-17T03:00:32.704Z,3.10
2023-05-17T03:02:59.587Z,2.80
2023-05-17T03:05:26.716Z,2.90
2023-05-17T03:07:53.692Z,2.80
2023-05-17T03:10:20.573Z,3.20
2023-05-17T03:12:47.511Z,3.00
2023-05-17T03:15:17.198Z,3.20
2023-05-17T03:17:44.206Z,2.80
2023-05-17T03:20:12.093Z,3.20
2023-05-17T03:22:39.109Z,3.10
2023-05-17T03:25:06.833Z,3.20
2023-05-17T03:27:33.963Z,3.70
2023-05-17T03:30:01.831Z,3.20
2023-05-17T03:32:29.259Z,3.20
2023-05-17T03:34:56.036Z,3.50
2023-05-17T03:37:23.158Z,3.10
2023-05-17T03:39:49.975Z,3.30
2023-05-17T03:42:16.845Z,2.70
2023-05-17T03:44:44.130Z,2.90
2023-05-17T03:47:11.721Z,2.80
2023-05-17T03:49:38.581Z,3.40
2023-05-17T03:52:05.487Z,3.60
2023-05-17T03:54:32.548Z,2.80
2023-05-17T03:57:00.228Z,3.20
2023-05-17T03:59:27.066Z,3.00
2023-05-17T04:01:53.966Z,2.90
2023-05-17T04:04:20.877Z,3.10
2023-05-17T04:06:47.632Z,2.90
2023-05-17T04:09:15.622Z,2.90
2023-05-17T04:11:42.733Z,2.70
2023-05-17T04:14:10.682Z,3.10
2023-05-17T04:16:37.563Z,2.50
2023-05-17T04:19:04.624Z,2.80
2023-05-17T04:21:31.498Z,3.20
2023-05-17T04:23:58.274Z,2.70
2023-05-17T04:26:26.889Z,2.90
2023-05-17T04:28:53.641Z,2.70
2023-05-17T04:31:22.410Z,2.60
2023-05-17T04:33:49.381Z,2.50
2023-05-17T04:36:17.610Z,2.60
2023-05-17T04:38:44.531Z,3.00
2023-05-17T04:41:13.733Z,2.90
2023-05-17T04:43:42.048Z,2.50
2023-05-17T04:46:13.048Z,2.10
2023-05-17T04:48:40.049Z,2.30
2023-05-17T04:51:07.388Z,2.70
2023-05-17T04:53:34.633Z,2.20
2023-05-17T04:56:06.642Z,2.40
2023-05-17T04:58:33.443Z,2.50
2023-05-17T05:01:00.644Z,2.20
2023-05-17T05:03:27.597Z,2.80
2023-05-17T05:05:54.507Z,2.50
2023-05-17T05:08:21.518Z,1.90
2023-05-17T05:10:48.273Z,2.40
2023-05-17T05:13:16.007Z,2.40
2023-05-17T05:15:43.066Z,2.30
2023-05-17T05:18:09.927Z,3.50
2023-05-17T05:20:36.866Z,2.20
2023-05-17T05:23:06.043Z,2.50
2023-05-17T05:25:33.305Z,2.90
2023-05-17T05:28:00.372Z,2.20
2023-05-17T05:30:27.601Z,2.50
2023-05-17T05:32:54.674Z,2.40
2023-05-17T05:35:26.469Z,2.30
2023-05-17T05:37:54.617Z,2.60
2023-05-17T05:40:21.649Z,2.20
2023-05-17T05:42:48.456Z,2.20
2023-05-17T05:45:15.558Z,2.20
2023-05-17T05:47:44.162Z,2.00
2023-05-17T05:50:11.460Z,2.40
2023-05-17T05:52:38.364Z,3.10
2023-05-17T05:55:05.891Z,2.40
2023-05-17T05:57:32.752Z,2.40
2023-05-17T05:59:59.712Z,2.40
2023-05-17T06:02:26.833Z,2.40
2023-05-17T06:04:53.641Z,2.20
2023-05-17T06:07:20.625Z,2.70
2023-05-17T06:09:47.345Z,2.60
2023-05-17T06:12:14.145Z,2.10
2023-05-17T06:14:40.941Z,2.10
2023-05-17T06:17:07.735Z,2.30
2023-05-17T06:19:34.570Z,2.50
2023-05-17T06:22:01.434Z,2.20
2023-05-17T06:24:28.252Z,2.50
2023-05-17T06:26:55.120Z,2.60
2023-05-17T06:29:21.999Z,2.10
2023-05-17T06:31:48.936Z,1.70
2023-05-17T06:34:15.956Z,2.20
2023-05-17T06:36:42.828Z,2.50
2023-05-17T06:39:09.711Z,2.60
2023-05-17T06:41:38.290Z,2.20
2023-05-17T06:44:05.222Z,2.20
2023-05-17T06:46:31.940Z,2.50
2023-05-17T06:48:58.937Z,2.20
2023-05-17T06:51:26.194Z,2.10
2023-05-17T06:53:53.396Z,2.10
2023-05-17T06:56:20.217Z,2.20
2023-05-17T06:58:46.984Z,2.20
2023-05-17T07:01:13.872Z,2.10
2023-05-17T07:03:40.786Z,1.90
2023-05-17T07:06:07.786Z,2.30
2023-05-17T07:08:34.545Z,2.00
2023-05-17T07:11:01.423Z,1.80
2023-05-17T07:13:28.180Z,1.90
2023-05-17T07:15:54.925Z,2.20
2023-05-17T07:18:21.753Z,2.50
2023-05-17T07:20:48.585Z,2.80
2023-05-17T07:23:15.358Z,2.40
2023-05-17T07:25:43.196Z,1.90
2023-05-17T07:28:10.134Z,2.00
2023-05-17T07:30:36.911Z,2.00
2023-05-17T07:33:03.846Z,2.20
2023-05-17T07:35:31.175Z,2.20
2023-05-17T07:37:58.154Z,2.40
2023-05-17T07:40:25.048Z,2.00
2023-05-17T07:42:52.067Z,2.30
2023-05-17T07:45:19.003Z,1.90
2023-05-17T07:47:45.834Z,2.10
2023-05-17T07:50:12.794Z,2.40
2023-05-17T07:52:39.656Z,2.20
2023-05-17T07:55:07.230Z,2.80
2023-05-17T07:57:34.129Z,2.50
2023-05-17T08:00:01.059Z,2.60
2023-05-17T08:02:27.906Z,2.00
2023-05-17T08:04:54.830Z,2.10
2023-05-17T08:07:21.697Z,2.40
2023-05-17T08:09:48.428Z,2.20
2023-05-17T08:12:15.222Z,2.00
2023-05-17T08:14:42.168Z,1.70
2023-05-17T08:17:08.986Z,2.00
2023-05-17T08:19:36.462Z,2.20
2023-05-17T08:22:03.690Z,1.90
2023-05-17T08:24:30.475Z,2.30
2023-05-17T08:26:57.408Z,2.20
2023-05-17T08:29:24.276Z,2.60
2023-05-17T08:31:52.555Z,2.20
2023-05-17T08:34:19.366Z,2.60
2023-05-17T08:36:46.238Z,2.40
2023-05-17T08:39:13.018Z,2.80
2023-05-17T08:41:39.953Z,2.00
2023-05-17T08:44:06.727Z,2.20
2023-05-17T08:46:33.773Z,2.10
2023-05-17T08:49:02.130Z,1.90
2023-05-17T08:51:28.986Z,1.80
2023-05-17T08:53:56.761Z,2.20
2023-05-17T08:56:23.715Z,1.90
2023-05-17T08:58:57.245Z,1.90
2023-05-17T09:01:26.347Z,2.10
2023-05-17T09:03:54.578Z,1.80
2023-05-17T09:06:22.389Z,2.20
2023-05-17T09:08:53.192Z,1.90
2023-05-17T09:11:30.740Z,1.90
2023-05-17T09:14:01.546Z,1.90
2023-05-17T09:16:29.696Z,2.00
2023-05-17T09:18:57.222Z,2.20
2023-05-17T09:21:24.735Z,2.20
2023-05-17T09:24:04.748Z,1.90
2023-05-17T09:26:43.240Z,2.70
2023-05-17T09:29:15.150Z,2.20
2023-05-17T09:31:42.284Z,2.40
2023-05-17T09:34:09.463Z,2.20
2023-05-17T09:36:37.504Z,2.00
2023-05-17T09:39:06.193Z,2.60
2023-05-17T09:41:33.901Z,2.40
2023-05-17T09:44:01.458Z,2.00
2023-05-17T09:46:41.381Z,2.30
2023-05-17T09:49:09.322Z,2.00
2023-05-17T09:51:38.791Z,2.20
2023-05-17T09:54:10.364Z,1.90
2023-05-17T09:56:37.283Z,2.10
2023-05-17T09:59:04.947Z,2.70
2023-05-17T10:01:32.167Z,2.30
2023-05-17T10:04:01.212Z,1.90
2023-05-17T10:08:59.952Z,2.00
2023-05-17T10:11:35.709Z,1.60
2023-05-17T10:14:12.637Z,2.10
2023-05-17T10:16:39.585Z,1.60
2023-05-17T10:19:06.411Z,1.60
2023-05-17T10:21:33.321Z,1.80
2023-05-17T10:24:01.031Z,2.00
2023-05-17T10:26:28.418Z,1.50
2023-05-17T10:29:00.765Z,1.40
2023-05-17T10:31:31.433Z,1.70
2023-05-17T10:33:58.252Z,1.60
2023-05-17T10:36:25.065Z,1.40
2023-05-17T10:38:51.993Z,1.50
2023-05-17T10:41:19.965Z,1.20
2023-05-17T10:43:46.966Z,1.20
2023-05-17T10:46:17.953Z,1.50
2023-05-17T10:48:44.812Z,1.40
2023-05-17T10:51:12.013Z,1.50
2023-05-17T10:54:04.388Z,1.40
2023-05-17T10:56:31.642Z,1.30
2023-05-17T10:59:18.486Z,1.00
2023-05-17T11:02:09.879Z,1.50
